Time;durP1;ratioP1;P1;durP2;ratioP2;P2;SDS_P1;SDS_P2;PMS_P1;PMS_P2;Temp;Humidity;BMP_temperature;BMP_pressure;BME280_temperature;BME280_humidity;BME280_pressure;Samples;Min_cycle;Max_cycle;Signal;HPM_P1;HPM_P2
2023/04/18 00:00:23;;;;;;;12.20;9.40;;;;;;;8.74;75.63;97083.09;5039958;28;20136;-81
2023/04/18 00:02:52;;;;;;;13.98;10.30;;;;;;;8.71;75.50;97080.00;5039990;28;20054;-84
2023/04/18 00:05:21;;;;;;;11.52;9.75;;;;;;;8.70;76.92;97078.38;5040603;28;20076;-82
2023/04/18 00:07:51;;;;;;;11.15;9.32;;;;;;;8.68;75.79;97080.31;5039362;28;20057;-81
2023/04/18 00:10:19;;;;;;;12.77;10.13;;;;;;;8.71;78.29;97077.41;5040124;28;20055;-79
2023/04/18 00:12:47;;;;;;;12.27;9.65;;;;;;;8.76;78.13;97075.13;5038515;28;20049;-83
2023/04/18 00:15:15;;;;;;;12.75;8.77;;;;;;;8.77;76.16;97071.59;5038836;28;20148;-79
2023/04/18 00:17:42;;;;;;;11.43;9.30;;;;;;;8.71;74.84;97065.22;5038809;28;20424;-81
2023/04/18 00:20:11;;;;;;;10.73;8.80;;;;;;;8.64;73.97;97070.22;5038385;28;20049;-79
2023/04/18 00:22:41;;;;;;;10.82;8.63;;;;;;;8.57;73.85;97066.66;5038672;28;20046;-81
2023/04/18 00:25:11;;;;;;;10.68;8.63;;;;;;;8.54;74.06;97059.13;5037636;28;20509;-81
2023/04/18 00:27:39;;;;;;;12.38;9.15;;;;;;;8.50;73.75;97063.03;5042219;28;20115;-84
2023/04/18 00:30:08;;;;;;;9.70;8.70;;;;;;;8.46;73.87;97066.91;5041615;28;20050;-86
2023/04/18 00:32:36;;;;;;;12.13;9.23;;;;;;;8.45;74.68;97055.69;5040355;28;20046;-81
2023/04/18 00:35:04;;;;;;;12.05;8.88;;;;;;;8.46;74.75;97056.50;5040644;28;20055;-84
2023/04/18 00:37:32;;;;;;;11.85;9.73;;;;;;;8.49;75.06;97056.22;5040490;28;20046;-82
2023/04/18 00:40:00;;;;;;;11.48;9.27;;;;;;;8.51;74.74;97059.47;5040121;28;20041;-87
2023/04/18 00:42:29;;;;;;;10.63;9.48;;;;;;;8.50;74.38;97052.63;5040542;28;20049;-86
2023/04/18 00:44:56;;;;;;;10.80;9.20;;;;;;;8.51;75.30;97051.66;5041309;28;20045;-83
2023/04/18 00:47:24;;;;;;;10.57;8.88;;;;;;;8.53;75.71;97054.13;5041265;28;20072;-84
2023/04/18 00:49:52;;;;;;;11.18;8.85;;;;;;;8.51;74.74;97049.06;5041809;28;20077;-83
2023/04/18 00:52:20;;;;;;;11.25;9.18;;;;;;;8.50;74.07;97051.81;5040178;28;20056;-82
2023/04/18 00:54:48;;;;;;;13.43;9.25;;;;;;;8.47;74.05;97049.53;5041698;28;20404;-83
2023/04/18 00:57:16;;;;;;;10.18;8.63;;;;;;;8.46;74.25;97056.50;5041793;28;20049;-84
2023/04/18 00:59:46;;;;;;;14.48;9.20;;;;;;;8.45;73.75;97053.09;5040920;28;20049;-83
2023/04/18 01:02:14;;;;;;;12.18;9.77;;;;;;;8.47;73.71;97057.34;5042017;28;20060;-84
2023/04/18 01:04:42;;;;;;;12.35;9.73;;;;;;;8.45;73.33;97049.69;5041825;28;20061;-84
2023/04/18 01:07:10;;;;;;;11.00;9.60;;;;;;;8.43;73.40;97049.03;5039983;28;20054;-82
2023/04/18 01:09:38;;;;;;;11.43;8.70;;;;;;;8.40;73.40;97051.94;5040561;28;20107;-82
2023/04/18 01:12:06;;;;;;;12.75;9.25;;;;;;;8.43;75.32;97055.03;5040594;28;20045;-83
2023/04/18 01:14:34;;;;;;;11.68;9.27;;;;;;;8.50;76.14;97044.00;5039803;28;20056;-82
2023/04/18 01:17:03;;;;;;;9.98;8.88;;;;;;;8.55;76.53;97039.97;5030640;28;20059;-83
2023/04/18 01:19:30;;;;;;;12.43;10.30;;;;;;;8.57;74.93;97040.63;5059781;28;20523;-82
2023/04/18 01:21:58;;;;;;;10.85;9.05;;;;;;;8.56;74.10;97041.59;5048829;28;20064;-78
2023/04/18 01:24:28;;;;;;;12.77;9.18;;;;;;;8.56;75.88;97036.41;5039359;28;20421;-81
2023/04/18 01:26:56;;;;;;;11.93;9.85;;;;;;;8.57;74.67;97038.03;5038279;28;20440;-83
2023/04/18 01:29:23;;;;;;;11.88;9.77;;;;;;;8.53;73.73;97036.72;5038433;28;20592;-82
2023/04/18 01:31:51;;;;;;;12.35;9.23;;;;;;;8.51;73.74;97037.84;5037100;28;20060;-84
2023/04/18 01:34:19;;;;;;;15.68;9.85;;;;;;;8.50;74.81;97031.81;5037175;28;20049;-81
2023/04/18 01:36:47;;;;;;;12.25;10.18;;;;;;;8.52;74.25;97034.28;5037919;28;20045;-82
2023/04/18 01:39:15;;;;;;;14.38;10.02;;;;;;;8.48;73.43;97032.97;5039030;28;20103;-79
2023/04/18 01:41:44;;;;;;;11.00;8.52;;;;;;;8.50;75.72;97031.00;5038131;28;20063;-81
2023/04/18 01:44:12;;;;;;;14.45;10.05;;;;;;;8.50;74.78;97031.81;5039101;28;20050;-84
2023/04/18 01:46:39;;;;;;;14.07;10.10;;;;;;;8.48;74.08;97022.56;5039848;28;20579;-80
2023/04/18 01:49:08;;;;;;;12.90;9.98;;;;;;;8.50;74.76;97026.63;5039192;28;20595;-84
2023/04/18 01:51:37;;;;;;;12.38;9.85;;;;;;;8.52;74.30;97019.47;5038654;28;20056;-83
2023/04/18 01:54:05;;;;;;;11.65;9.93;;;;;;;8.51;74.14;97025.66;5038313;28;20050;-81
2023/04/18 01:56:32;;;;;;;14.02;10.40;;;;;;;8.53;74.05;97026.31;5038828;28;20045;-81
2023/04/18 01:59:01;;;;;;;11.23;9.93;;;;;;;8.51;74.62;97017.06;5038781;28;20049;-81
2023/04/18 02:01:29;;;;;;;12.60;9.65;;;;;;;8.50;73.93;97010.22;5038622;28;20045;-79
2023/04/18 02:03:56;;;;;;;12.15;10.07;;;;;;;8.45;73.37;97008.91;5042415;28;20109;-79
2023/04/18 02:06:24;;;;;;;15.90;10.30;;;;;;;8.39;73.21;97009.50;5043642;28;20053;-80
2023/04/18 02:08:52;;;;;;;12.15;9.10;;;;;;;8.32;73.43;97002.50;5044405;28;20485;-84
2023/04/18 02:11:20;;;;;;;12.63;10.48;;;;;;;8.27;73.54;97008.16;5043929;28;20535;-83
2023/04/18 02:13:47;;;;;;;12.77;10.35;;;;;;;8.25;73.68;97008.31;5044293;28;20107;-82
2023/04/18 02:16:16;;;;;;;12.43;9.82;;;;;;;8.23;73.46;97015.47;5044295;28;20053;-83
2023/04/18 02:18:44;;;;;;;14.07;10.90;;;;;;;8.19;73.47;97011.53;5044803;28;20092;-86
2023/04/18 02:21:12;;;;;;;14.32;11.90;;;;;;;8.20;73.91;97015.78;5044929;28;20504;-83
2023/04/18 02:23:39;;;;;;;12.63;10.13;;;;;;;8.21;74.46;97007.00;5044647;28;20049;-82
2023/04/18 02:26:07;;;;;;;17.10;10.80;;;;;;;8.27;76.66;97015.97;5044877;28;20053;-82
2023/04/18 02:28:37;;;;;;;12.45;10.10;;;;;;;8.32;75.36;97015.50;5044977;28;20060;-81
2023/04/18 02:31:06;;;;;;;17.48;11.43;;;;;;;8.32;74.42;97013.69;5045119;28;20053;-81
2023/04/18 02:33:35;;;;;;;16.02;11.43;;;;;;;8.29;73.87;97013.19;5044050;28;20138;-82
2023/04/18 02:36:03;;;;;;;15.25;11.48;;;;;;;8.31;74.27;97006.06;5044301;28;20050;-82
2023/04/18 02:38:31;;;;;;;12.55;11.05;;;;;;;8.32;73.92;97010.28;5043768;28;20123;-82
2023/04/18 02:40:58;;;;;;;13.50;10.55;;;;;;;8.32;73.49;97005.09;5043054;28;20531;-82
2023/04/18 02:43:26;;;;;;;13.52;10.68;;;;;;;8.30;73.29;96999.25;5043329;28;20052;-82
2023/04/18 02:45:54;;;;;;;16.10;12.25;;;;;;;8.28;73.17;97001.19;5043662;28;20061;-84
2023/04/18 02:48:22;;;;;;;14.52;11.07;;;;;;;8.24;73.01;96993.72;5044328;28;20072;-82
2023/04/18 02:50:51;;;;;;;13.98;11.35;;;;;;;8.19;72.77;96992.53;5044420;28;20080;-84
2023/04/18 02:53:22;;;;;;;12.48;10.55;;;;;;;8.19;74.86;96997.75;5044464;28;20057;-84
2023/04/18 02:55:50;;;;;;;13.93;11.27;;;;;;;8.20;74.13;97002.78;5043147;28;20049;-81
2023/04/18 02:58:17;;;;;;;14.20;11.25;;;;;;;8.20;73.62;97002.78;5044579;28;20053;-82
2023/04/18 03:00:45;;;;;;;15.07;11.70;;;;;;;8.18;73.33;97001.31;5045181;28;20060;-82
2023/04/18 03:03:13;;;;;;;13.00;10.65;;;;;;;8.15;73.39;97002.41;5044196;28;20053;-83
2023/04/18 03:05:40;;;;;;;14.45;11.48;;;;;;;8.13;73.28;97008.75;5045103;28;20080;-86
2023/04/18 03:08:09;;;;;;;13.00;10.30;;;;;;;8.15;74.19;97004.22;5044420;28;20444;-83
2023/04/18 03:10:37;;;;;;;14.25;11.50;;;;;;;8.20;74.69;97005.38;5044024;28;20052;-83
2023/04/18 03:13:05;;;;;;;13.93;11.18;;;;;;;8.25;75.84;97008.31;5043739;28;20105;-84
2023/04/18 03:15:33;;;;;;;12.23;10.38;;;;;;;8.30;74.65;97009.63;5042780;28;20064;-83
2023/04/18 03:18:01;;;;;;;12.70;10.82;;;;;;;8.35;76.28;97007.38;5043287;28;20050;-84
2023/04/18 03:20:28;;;;;;;14.23;11.48;;;;;;;8.36;74.46;96996.00;5044395;28;20042;-83
2023/04/18 03:22:56;;;;;;;12.18;10.25;;;;;;;8.35;73.99;96996.97;5043634;28;20049;-81
2023/04/18 03:25:25;;;;;;;13.93;11.95;;;;;;;8.35;73.31;97004.78;5043346;28;20496;-81
2023/04/18 03:27:53;;;;;;;15.38;11.88;;;;;;;8.33;73.20;97012.75;5042565;28;20116;-88
2023/04/18 03:30:21;;;;;;;15.23;11.85;;;;;;;8.28;72.66;97014.97;5042509;28;20053;-87
2023/04/18 03:32:48;;;;;;;15.35;12.02;;;;;;;8.20;72.48;97015.78;5042662;28;20428;-82
2023/04/18 03:35:16;;;;;;;13.68;11.02;;;;;;;8.17;72.75;97010.88;5042446;28;20045;-84
2023/04/18 03:37:44;;;;;;;14.25;11.65;;;;;;;8.13;72.66;97008.75;5042763;28;20425;-78
2023/04/18 03:40:12;;;;;;;14.68;12.10;;;;;;;8.15;74.35;97007.63;5041828;28;20497;-80
2023/04/18 03:42:41;;;;;;;16.17;11.63;;;;;;;8.20;73.49;97012.38;5041271;28;20416;-81
2023/04/18 03:45:09;;;;;;;15.43;12.38;;;;;;;8.18;72.76;97006.53;5041460;28;20049;-83
2023/04/18 03:47:37;;;;;;;15.93;12.23;;;;;;;8.15;72.64;97005.03;5041331;28;20050;-83
2023/04/18 03:50:06;;;;;;;15.68;12.35;;;;;;;8.10;72.47;97009.88;5041745;28;20069;-83
2023/04/18 03:52:33;;;;;;;15.45;10.52;;;;;;;8.09;72.54;97005.66;5042317;28;20136;-85
2023/04/18 03:55:01;;;;;;;13.35;10.77;;;;;;;8.08;72.44;97009.22;5041540;28;20049;-83
2023/04/18 03:57:29;;;;;;;15.75;11.55;;;;;;;8.06;72.10;97008.56;5041483;28;20053;-79
2023/04/18 03:59:58;;;;;;;14.50;11.80;;;;;;;8.04;72.93;97015.69;5041068;28;20049;-83
2023/04/18 04:02:25;;;;;;;16.60;11.98;;;;;;;8.02;72.49;97015.03;5040014;28;20056;-83
2023/04/18 04:04:53;;;;;;;15.98;12.85;;;;;;;7.97;72.38;97014.69;5039504;28;20045;-82
2023/04/18 04:07:21;;;;;;;17.33;12.73;;;;;;;7.95;72.49;97012.25;5040230;28;20429;-82
2023/04/18 04:09:48;;;;;;;15.75;12.55;;;;;;;7.96;72.94;97013.88;5040334;28;20082;-83
2023/04/18 04:12:16;;;;;;;16.83;13.23;;;;;;;7.99;72.84;97015.34;5039746;28;20063;-88
2023/04/18 04:14:44;;;;;;;15.30;12.10;;;;;;;8.02;73.32;97020.22;5041032;28;20097;-85
2023/04/18 04:17:13;;;;;;;16.15;12.23;;;;;;;8.04;72.85;97015.69;5040903;28;20057;-82
2023/04/18 04:19:40;;;;;;;19.98;12.18;;;;;;;7.99;72.49;97012.75;5041866;28;20075;-80
2023/04/18 04:22:08;;;;;;;17.80;12.82;;;;;;;7.95;72.33;97021.81;5040843;28;20056;-80
2023/04/18 04:24:37;;;;;;;14.43;11.65;;;;;;;7.95;73.52;97027.03;5040439;28;20143;-85
2023/04/18 04:27:05;;;;;;;17.55;13.27;;;;;;;7.95;73.06;97021.81;5027887;28;20048;-83
2023/04/18 04:29:34;;;;;;;17.77;13.07;;;;;;;7.93;73.16;97026.38;5034366;28;20080;-84
2023/04/18 04:32:02;;;;;;;18.98;13.52;;;;;;;7.92;73.27;97025.56;5040251;28;20057;-82
2023/04/18 04:34:33;;;;;;;15.55;12.23;;;;;;;7.93;72.94;97026.38;5036751;28;20053;-83
2023/04/18 04:37:02;;;;;;;16.30;12.48;;;;;;;7.96;73.05;97028.63;5024394;28;20521;-80
2023/04/18 04:39:29;;;;;;;17.92;12.90;;;;;;;8.00;74.24;97036.00;5037305;28;20053;-87
2023/04/18 04:41:57;;;;;;;16.15;12.85;;;;;;;8.07;75.73;97028.41;5034556;28;20120;-80
2023/04/18 04:44:25;;;;;;;18.45;13.57;;;;;;;8.13;74.81;97034.75;5038297;28;20045;-79
2023/04/18 04:46:53;;;;;;;16.70;13.15;;;;;;;8.14;73.65;97033.78;5016506;28;20054;-80
2023/04/18 04:49:21;;;;;;;19.80;14.57;;;;;;;8.11;73.13;97027.13;5021158;28;20488;-87
2023/04/18 04:51:50;;;;;;;18.55;13.45;;;;;;;8.10;73.02;97032.47;5037792;28;20041;-81
2023/04/18 04:54:17;;;;;;;17.65;12.82;;;;;;;8.11;73.63;97036.69;5037894;28;20437;-83
2023/04/18 04:56:45;;;;;;;18.30;12.82;;;;;;;8.13;73.39;97045.94;5038465;28;20055;-83
2023/04/18 04:59:13;;;;;;;18.65;13.95;;;;;;;8.12;73.00;97040.91;5038012;28;20501;-78
2023/04/18 05:01:40;;;;;;;18.15;13.48;;;;;;;8.15;73.15;97043.19;5037441;28;20056;-80
2023/04/18 05:04:08;;;;;;;16.10;12.95;;;;;;;8.19;73.62;97040.13;5037682;28;20060;-78
2023/04/18 05:06:36;;;;;;;18.65;14.32;;;;;;;8.25;73.51;97036.09;5038268;28;20516;-82
2023/04/18 05:09:08;;;;;;;16.30;12.35;;;;;;;8.28;72.95;97042.78;5037646;28;20054;-81
2023/04/18 05:11:35;;;;;;;17.25;13.27;;;;;;;8.28;72.62;97040.97;5036163;28;20132;-80
2023/04/18 05:14:03;;;;;;;17.83;13.38;;;;;;;8.27;72.34;97041.97;5036224;28;20049;-78
2023/04/18 05:16:31;;;;;;;18.42;14.30;;;;;;;8.26;72.44;97045.50;5036517;28;20049;-82
2023/04/18 05:18:59;;;;;;;20.13;13.73;;;;;;;8.25;72.41;97049.09;5035723;28;20057;-79
2023/04/18 05:21:27;;;;;;;19.98;13.45;;;;;;;8.25;72.31;97051.69;5070092;22;20883;-78
2023/04/18 05:23:55;;;;;;;18.25;13.75;;;;;;;8.24;72.32;97052.66;5011047;28;20050;-78
2023/04/18 05:26:24;;;;;;;19.30;14.45;;;;;;;8.24;72.15;97052.66;5011331;28;20053;-77
2023/04/18 05:28:52;;;;;;;19.13;13.95;;;;;;;8.22;72.11;97047.63;5011278;28;20057;-77
2023/04/18 05:31:19;;;;;;;19.98;13.48;;;;;;;8.22;72.24;97055.44;5011264;28;20065;-78
2023/04/18 05:33:47;;;;;;;18.55;14.07;;;;;;;8.29;74.54;97049.56;5010632;28;20104;-78
2023/04/18 05:36:15;;;;;;;18.42;13.23;;;;;;;8.39;75.29;97055.47;5011303;28;20046;-77
2023/04/18 05:38:42;;;;;;;15.23;12.13;;;;;;;8.46;74.94;97051.31;5011165;28;20104;-77
2023/04/18 05:41:10;;;;;;;18.85;14.23;;;;;;;8.50;73.87;97057.81;5013739;28;20054;-77
2023/04/18 05:43:39;;;;;;;17.20;13.38;;;;;;;8.51;72.85;97058.66;5013883;28;20054;-78
2023/04/18 05:46:08;;;;;;;23.23;14.07;;;;;;;8.50;72.56;97057.00;5014906;28;20108;-77
2023/04/18 05:48:35;;;;;;;19.50;13.32;;;;;;;8.48;72.53;97053.75;5035734;28;20069;-77
2023/04/18 05:51:04;;;;;;;20.40;14.82;;;;;;;8.48;72.16;97049.38;5034636;28;20037;-77
2023/04/18 05:53:32;;;;;;;18.80;13.63;;;;;;;8.45;72.14;97055.69;5034198;28;20053;-78
2023/04/18 05:56:00;;;;;;;19.33;13.73;;;;;;;8.44;71.98;97051.47;5033799;28;20050;-78
2023/04/18 05:58:28;;;;;;;18.35;13.73;;;;;;;8.43;71.85;97060.25;5033628;28;20115;-77
2023/04/18 06:00:57;;;;;;;19.13;12.88;;;;;;;8.43;71.89;97055.03;5032825;28;20122;-78
2023/04/18 06:03:24;;;;;;;16.83;13.00;;;;;;;8.48;72.32;97058.97;5032013;28;20079;-77
2023/04/18 06:05:52;;;;;;;19.70;13.77;;;;;;;8.53;71.93;97062.72;5031808;28;20050;-77
2023/04/18 06:08:20;;;;;;;22.80;14.43;;;;;;;8.54;71.74;97066.94;5022353;28;20133;-78
2023/04/18 06:10:47;;;;;;;18.45;13.60;;;;;;;8.52;71.61;97068.06;5012835;28;20054;-78
2023/04/18 06:13:15;;;;;;;22.30;17.05;;;;;;;8.47;71.76;97063.34;5012919;28;20049;-78
2023/04/18 06:15:42;;;;;;;17.75;13.30;;;;;;;8.43;71.81;97064.63;5013113;28;20421;-78
2023/04/18 06:18:11;;;;;;;21.50;15.20;;;;;;;8.40;72.07;97077.91;5013795;28;20053;-78
2023/04/18 06:20:40;;;;;;;25.13;18.55;;;;;;;8.41;72.04;97069.16;5022051;28;20050;-77
2023/04/18 06:23:08;;;;;;;29.25;19.58;;;;;;;8.42;72.27;97081.22;5027286;28;20080;-78
2023/04/18 06:25:36;;;;;;;23.02;16.05;;;;;;;8.42;72.29;97071.63;5021783;28;20049;-78
2023/04/18 06:28:04;;;;;;;20.20;15.45;;;;;;;8.46;72.40;97079.91;5016407;28;20050;-78
2023/04/18 06:30:31;;;;;;;20.25;15.82;;;;;;;8.51;72.12;97069.88;5013748;28;20053;-78
2023/04/18 06:32:59;;;;;;;22.58;17.10;;;;;;;8.54;71.74;97085.13;5012149;28;20575;-78
2023/04/18 06:35:30;;;;;;;23.23;15.45;;;;;;;8.59;71.76;97085.50;5012904;28;20050;-78
2023/04/18 06:37:58;;;;;;;25.77;17.17;;;;;;;8.61;71.70;97078.34;5014698;28;20140;-78
2023/04/18 06:40:25;;;;;;;20.48;15.65;;;;;;;8.62;71.88;97073.97;5032688;28;20054;-78
2023/04/18 06:42:53;;;;;;;20.60;14.98;;;;;;;8.69;72.07;97076.75;5030252;28;20118;-78
2023/04/18 06:45:20;;;;;;;22.20;17.05;;;;;;;8.78;72.33;97075.81;5031243;28;20050;-78
2023/04/18 06:47:50;;;;;;;23.05;17.15;;;;;;;8.93;71.96;97084.63;5024923;28;20549;-78
2023/04/18 06:50:17;;;;;;;20.08;14.82;;;;;;;9.09;71.27;97083.81;5016771;28;20108;-77
2023/04/18 06:52:46;;;;;;;20.23;15.35;;;;;;;9.12;70.56;97087.88;5016383;28;20576;-77
2023/04/18 06:55:14;;;;;;;25.50;17.08;;;;;;;9.11;70.67;97086.28;5016750;28;20053;-78
2023/04/18 06:57:42;;;;;;;23.35;16.27;;;;;;;9.14;70.75;97092.00;5016261;28;20061;-77
2023/04/18 07:00:11;;;;;;;25.90;17.67;;;;;;;9.21;70.44;97086.94;5016177;28;20050;-78
2023/04/18 07:02:39;;;;;;;22.75;16.98;;;;;;;9.35;70.46;97088.91;5015623;28;20061;-78
2023/04/18 07:05:08;;;;;;;23.88;16.58;;;;;;;9.57;69.75;97089.25;5015748;28;20069;-77
2023/04/18 07:07:35;;;;;;;20.42;14.82;;;;;;;9.80;69.22;97092.81;5015613;28;20050;-78
2023/04/18 07:10:08;;;;;;;18.73;15.10;;;;;;;10.01;68.49;97081.03;5015866;28;20443;-77
2023/04/18 07:12:35;;;;;;;;;;;;;;;10.20;68.86;97083.28;5016386;28;20563;-78
2023/04/18 07:15:03;;;;;;;20.25;15.50;;;;;;;10.36;67.80;97081.63;5015662;28;19927;-78
2023/04/18 07:17:31;;;;;;;18.10;14.20;;;;;;;10.46;67.31;97082.25;5016061;28;20429;-78
2023/04/18 07:19:59;;;;;;;20.08;15.55;;;;;;;10.55;66.92;97078.63;5015743;28;20041;-78
2023/04/18 07:22:26;;;;;;;26.23;17.73;;;;;;;10.60;66.70;97078.91;5015207;28;20108;-78
2023/04/18 07:24:54;;;;;;;22.50;16.08;;;;;;;10.66;66.47;97082.66;5016043;28;20061;-78
2023/04/18 07:27:23;;;;;;;18.10;14.43;;;;;;;10.66;66.25;97082.66;5016050;28;20050;-78
2023/04/18 07:29:50;;;;;;;21.73;15.45;;;;;;;10.65;66.26;97094.09;5015752;28;20049;-78
2023/04/18 07:32:18;;;;;;;21.02;13.65;;;;;;;10.67;66.29;97090.31;5015210;28;20518;-78
2023/04/18 07:34:45;;;;;;;18.10;14.10;;;;;;;10.64;65.88;97092.44;5015707;28;20054;-78
2023/04/18 07:37:13;;;;;;;19.30;14.30;;;;;;;10.51;66.38;97096.41;5015906;28;20092;-78
2023/04/18 07:39:41;;;;;;;17.60;13.70;;;;;;;10.37;66.71;97093.72;5015814;28;20058;-78
2023/04/18 07:42:10;;;;;;;20.70;14.52;;;;;;;10.26;66.75;97098.25;5015498;28;20056;-78
2023/04/18 07:44:39;;;;;;;20.38;14.80;;;;;;;10.14;66.69;97102.19;5015581;28;20042;-77
2023/04/18 07:47:09;;;;;;;20.25;14.60;;;;;;;10.06;67.25;97097.81;5015485;28;20053;-78
2023/04/18 07:49:36;;;;;;;18.17;14.45;;;;;;;10.04;67.88;97106.78;5015542;28;20049;-78
2023/04/18 07:52:05;;;;;;;22.48;15.27;;;;;;;10.09;68.01;97112.31;5015345;28;20054;-77
2023/04/18 07:54:32;;;;;;;20.70;15.30;;;;;;;10.07;67.86;97106.44;5014962;28;20502;-77
2023/04/18 07:57:00;;;;;;;23.80;15.90;;;;;;;10.04;67.56;97110.22;5015123;28;20049;-77
2023/04/18 07:59:27;;;;;;;19.27;14.43;;;;;;;10.03;68.82;97115.56;5015334;28;20585;-78
2023/04/18 08:01:56;;;;;;;20.00;14.32;;;;;;;10.02;67.96;97116.56;5014625;28;20052;-78
2023/04/18 08:04:25;;;;;;;18.73;14.25;;;;;;;10.06;68.05;97113.47;5015227;28;20466;-78
2023/04/18 08:06:56;;;;;;;25.42;15.65;;;;;;;10.10;67.74;97114.75;5015412;28;20052;-78
2023/04/18 08:09:23;;;;;;;19.67;14.23;;;;;;;10.15;67.93;97111.66;5014761;28;20088;-77
2023/04/18 08:11:53;;;;;;;23.67;15.48;;;;;;;10.17;67.37;97114.09;5014333;28;20049;-78
2023/04/18 08:14:21;;;;;;;20.20;14.85;;;;;;;10.17;67.63;97120.13;5014475;28;20064;-78
2023/04/18 08:16:48;;;;;;;18.30;13.77;;;;;;;10.28;67.50;97111.94;5014624;28;20056;-78
2023/04/18 08:19:17;;;;;;;18.80;14.13;;;;;;;10.45;67.45;97111.91;5014548;28;20543;-77
2023/04/18 08:21:45;;;;;;;17.27;13.60;;;;;;;10.65;66.86;97107.94;5014239;28;20136;-78
2023/04/18 08:24:12;;;;;;;17.15;13.27;;;;;;;10.89;66.38;97108.81;5014522;28;20171;-77
2023/04/18 08:26:40;;;;;;;16.67;13.13;;;;;;;11.25;65.47;97106.47;5013989;28;20060;-77
2023/04/18 08:29:07;;;;;;;16.10;12.50;;;;;;;11.54;64.60;97116.25;5014152;28;20409;-78
2023/04/18 08:31:35;;;;;;;17.85;12.88;;;;;;;11.93;63.84;97111.84;5014407;28;20424;-78
2023/04/18 08:34:03;;;;;;;14.43;11.88;;;;;;;12.35;62.84;97106.06;5013853;28;20042;-78
2023/04/18 08:36:34;;;;;;;17.48;12.05;;;;;;;12.59;61.96;97111.97;5014199;28;20046;-78
2023/04/18 08:39:02;;;;;;;15.57;12.23;;;;;;;12.63;61.98;97110.63;5014110;28;20056;-77
2023/04/18 08:41:35;;;;;;;22.10;13.02;;;;;;;12.63;61.40;97113.25;5013885;28;20053;-78
2023/04/18 08:44:03;;;;;;;14.45;11.75;;;;;;;12.69;61.88;97115.13;5014199;28;20046;-78
2023/04/18 08:46:34;;;;;;;17.77;12.05;;;;;;;12.94;60.74;97112.22;5014510;28;20509;-78
2023/04/18 08:49:03;;;;;;;14.63;11.18;;;;;;;13.02;60.60;97117.34;5014249;28;20133;-78
2023/04/18 08:51:32;;;;;;;16.60;12.23;;;;;;;13.28;59.72;97108.16;5013703;28;20082;-78
2023/04/18 08:54:03;;;;;;;12.45;10.55;;;;;;;13.53;60.50;97119.09;5013581;28;20416;-78
2023/04/18 08:56:31;;;;;;;14.02;10.80;;;;;;;13.64;58.63;97120.41;5013748;28;20046;-78
2023/04/18 08:58:59;;;;;;;14.02;11.32;;;;;;;13.41;58.57;97126.66;5013647;28;20054;-77
2023/04/18 09:01:55;;;;;;;13.32;10.60;;;;;;;13.14;59.56;97123.72;5013961;28;20056;-78
2023/04/18 09:04:34;;;;;;;13.20;10.73;;;;;;;13.02;59.13;97122.56;5013348;28;20145;-78
2023/04/18 09:07:03;;;;;;;12.55;10.73;;;;;;;12.89;60.11;97117.19;5014268;28;20116;-78
2023/04/18 09:09:45;;;;;;;14.45;10.13;;;;;;;12.87;60.23;97119.19;5013673;28;20502;-79
2023/04/18 09:12:14;;;;;;;11.20;9.52;;;;;;;12.87;60.57;97119.19;5012956;28;20100;-78
2023/04/18 09:14:45;;;;;;;15.15;10.82;;;;;;;12.77;60.65;97124.72;5013562;28;20042;-78
2023/04/18 09:17:15;;;;;;;13.30;9.65;;;;;;;12.70;60.46;97129.03;5013914;28;20133;-78
2023/04/18 09:19:49;;;;;;;12.70;9.55;;;;;;;12.72;60.66;97125.22;5013431;28;20054;-78
2023/04/18 09:22:17;;;;;;;11.80;8.95;;;;;;;12.76;60.78;97126.50;5012755;28;20160;-78
2023/04/18 09:24:52;;;;;;;15.18;10.43;;;;;;;12.76;60.58;97123.06;5013727;28;20080;-78
2023/04/18 09:27:21;;;;;;;12.98;10.48;;;;;;;12.75;60.62;97127.50;5013280;28;20505;-78
2023/04/18 09:29:51;;;;;;;11.50;9.10;;;;;;;12.88;60.73;97110.31;5013429;28;20136;-78
2023/04/18 09:32:25;;;;;;;10.32;8.85;;;;;;;13.25;60.05;97116.38;5012740;28;20053;-78
2023/04/18 09:34:56;;;;;;;13.27;9.98;;;;;;;13.57;59.50;97122.97;5017775;28;20077;-79
2023/04/18 09:37:25;;;;;;;11.13;8.23;;;;;;;13.71;58.82;97121.28;5027228;28;20049;-79
2023/04/18 09:39:55;;;;;;;11.25;8.68;;;;;;;13.64;58.77;97126.44;5025218;28;20110;-78
2023/04/18 09:42:22;;;;;;;11.30;8.77;;;;;;;13.84;58.74;97117.94;5014409;28;20050;-78
2023/04/18 09:45:01;;;;;;;11.07;8.88;;;;;;;14.18;58.02;97117.19;5013942;28;20056;-78
2023/04/18 09:47:29;;;;;;;10.70;8.60;;;;;;;14.38;57.08;97110.25;5013238;28;20132;-78
2023/04/18 09:49:57;;;;;;;10.23;7.80;;;;;;;14.57;56.91;97111.41;5012935;28;20058;-78
2023/04/18 09:52:25;;;;;;;10.05;7.30;;;;;;;14.86;56.17;97124.47;5013525;28;20053;-78
2023/04/18 09:54:59;;;;;;;8.70;7.28;;;;;;;14.94;54.78;97113.81;5013420;28;20054;-78
2023/04/18 09:57:28;;;;;;;9.40;7.85;;;;;;;14.77;55.10;97114.13;5013086;28;20061;-78
2023/04/18 10:00:05;;;;;;;10.57;8.18;;;;;;;14.50;55.50;97120.25;5012859;28;20054;-78
2023/04/18 10:02:39;;;;;;;9.65;7.53;;;;;;;14.25;56.28;97128.53;5012819;28;20052;-78
2023/04/18 10:05:08;;;;;;;10.80;8.43;;;;;;;14.02;56.60;97124.34;5012587;28;20061;-78
2023/04/18 10:07:36;;;;;;;16.23;8.23;;;;;;;13.86;57.58;97134.31;5012861;28;20073;-78
2023/04/18 10:10:06;;;;;;;13.70;8.50;;;;;;;13.66;57.43;97124.47;5012923;28;20049;-78
2023/04/18 10:12:34;;;;;;;12.00;8.63;;;;;;;13.51;58.58;97126.34;5012297;28;20042;-78
2023/04/18 10:15:02;;;;;;;10.77;8.48;;;;;;;13.42;58.78;97114.34;5013209;28;20049;-78
2023/04/18 10:17:35;;;;;;;11.52;8.15;;;;;;;13.36;58.64;97121.16;5013047;28;20046;-78
2023/04/18 10:20:06;;;;;;;10.95;8.70;;;;;;;13.35;58.72;97116.91;5012697;28;20137;-78
2023/04/18 10:22:35;;;;;;;12.77;9.55;;;;;;;13.37;58.84;97122.78;5012585;28;20497;-78
2023/04/18 10:25:03;;;;;;;16.25;8.85;;;;;;;13.36;58.99;97119.34;5015664;28;20540;-78
2023/04/18 10:27:57;;;;;;;10.85;9.25;;;;;;;13.27;58.68;97120.44;5016275;28;20048;-78
2023/04/18 10:30:51;;;;;;;11.27;8.73;;;;;;;13.15;59.27;97127.97;5016452;28;20485;-78
2023/04/18 10:33:27;;;;;;;11.20;9.13;;;;;;;13.02;59.65;97124.41;5016200;28;20060;-78
2023/04/18 10:36:03;;;;;;;12.68;9.15;;;;;;;12.89;60.02;97125.03;5016533;28;20057;-78
2023/04/18 10:38:31;;;;;;;12.48;10.27;;;;;;;12.67;60.34;97119.75;5016499;28;20564;-78
2023/04/18 10:41:20;;;;;;;10.70;8.77;;;;;;;12.55;60.76;97123.81;5016430;28;20066;-78
2023/04/18 10:44:21;;;;;;;11.63;9.00;;;;;;;12.51;61.31;97119.94;5015988;28;20046;-78
2023/04/18 10:47:29;;;;;;;12.20;9.15;;;;;;;12.47;61.40;97124.72;5016397;28;20057;-78
2023/04/18 10:50:00;;;;;;;10.25;7.85;;;;;;;12.42;61.18;97121.00;5016713;28;20049;-78
2023/04/18 10:52:29;;;;;;;9.93;7.70;;;;;;;12.39;61.63;97116.16;5016373;28;20050;-78
2023/04/18 10:55:07;;;;;;;10.70;8.25;;;;;;;12.36;60.88;97118.13;5016106;28;20056;-78
2023/04/18 10:57:39;;;;;;;9.57;7.15;;;;;;;12.36;61.35;97112.09;5016446;28;20057;-78
2023/04/18 11:00:11;;;;;;;9.40;7.80;;;;;;;12.40;60.99;97112.53;5016292;28;20089;-78
2023/04/18 11:02:40;;;;;;;10.18;7.20;;;;;;;12.42;61.01;97114.00;5016117;28;20108;-78
2023/04/18 11:05:08;;;;;;;9.30;7.45;;;;;;;12.48;60.90;97109.81;5015774;28;20046;-78
2023/04/18 11:07:37;;;;;;;7.72;6.30;;;;;;;12.54;60.67;97114.34;5015755;28;20176;-78
2023/04/18 11:10:07;;;;;;;9.70;7.07;;;;;;;12.57;60.51;97109.56;5015441;28;20133;-78
2023/04/18 11:12:37;;;;;;;10.55;7.28;;;;;;;12.59;60.68;97109.38;5015559;28;20058;-78
2023/04/18 11:15:13;;;;;;;8.15;6.88;;;;;;;12.61;60.31;97104.75;5016428;28;20105;-78
2023/04/18 11:17:41;;;;;;;9.73;6.55;;;;;;;12.71;59.79;97107.91;5018067;28;20052;-78
2023/04/18 11:20:11;;;;;;;9.30;6.55;;;;;;;12.92;59.74;97103.72;5033089;28;20072;-79
2023/04/18 11:22:47;;;;;;;8.55;6.10;;;;;;;13.03;58.71;97102.44;5049058;22;20053;-84
2023/04/18 11:25:15;;;;;;;8.05;6.50;;;;;;;13.06;58.94;97102.09;5044288;28;20076;-84
2023/04/18 11:27:44;;;;;;;13.00;6.30;;;;;;;13.03;58.70;97092.78;5043853;28;20056;-83
2023/04/18 11:30:14;;;;;;;6.97;6.28;;;;;;;13.03;58.38;97099.81;5043380;28;20483;-86
2023/04/18 11:32:42;;;;;;;6.18;5.32;;;;;;;13.01;58.40;97100.03;5044417;28;20050;-84
2023/04/18 11:35:11;;;;;;;10.45;6.70;;;;;;;12.98;58.78;97106.41;5043164;28;20064;-83